sensor_id;sensor_type;location;lat;lon;timestamp;pressure;altitude;pressure_sealevel;temperature;humidity
49723;BME280;43484;43.608;1.458;2024-02-21T00:00:08;100510.59;;;8.19;100.00
49723;BME280;43484;43.608;1.458;2024-02-21T00:02:36;100504.53;;;8.17;100.00
49723;BME280;43484;43.608;1.458;2024-02-21T00:05:03;100513.56;;;8.27;100.00
49723;BME280;43484;43.608;1.458;2024-02-21T00:07:30;100507.81;;;8.31;100.00
49723;BME280;43484;43.608;1.458;2024-02-21T00:09:57;100510.88;;;8.24;100.00
49723;BME280;43484;43.608;1.458;2024-02-21T00:12:23;100511.72;;;8.24;100.00
49723;BME280;43484;43.608;1.458;2024-02-21T00:14:50;100511.88;;;8.27;100.00
49723;BME280;43484;43.608;1.458;2024-02-21T00:17:17;100518.31;;;8.21;100.00
49723;BME280;43484;43.608;1.458;2024-02-21T00:19:43;100513.88;;;8.17;100.00
49723;BME280;43484;43.608;1.458;2024-02-21T00:22:10;100506.31;;;8.18;100.00
49723;BME280;43484;43.608;1.458;2024-02-21T00:24:37;100507.03;;;8.32;100.00
49723;BME280;43484;43.608;1.458;2024-02-21T00:27:03;100499.78;;;8.41;100.00
49723;BME280;43484;43.608;1.458;2024-02-21T00:29:30;100498.19;;;8.43;100.00
49723;BME280;43484;43.608;1.458;2024-02-21T00:31:57;100494.25;;;8.49;100.00
49723;BME280;43484;43.608;1.458;2024-02-21T00:34:23;100490.88;;;8.33;100.00
49723;BME280;43484;43.608;1.458;2024-02-21T00:36:50;100476.41;;;8.16;100.00
49723;BME280;43484;43.608;1.458;2024-02-21T00:39:17;100464.06;;;8.07;100.00
49723;BME280;43484;43.608;1.458;2024-02-21T00:41:43;100450.31;;;8.04;100.00
49723;BME280;43484;43.608;1.458;2024-02-21T00:44:10;100437.56;;;8.04;100.00
49723;BME280;43484;43.608;1.458;2024-02-21T00:46:37;100435.13;;;8.07;100.00
49723;BME280;43484;43.608;1.458;2024-02-21T00:49:05;100432.53;;;8.05;100.00
49723;BME280;43484;43.608;1.458;2024-02-21T00:51:32;100418.81;;;8.03;100.00
49723;BME280;43484;43.608;1.458;2024-02-21T00:53:58;100410.47;;;8.07;100.00
49723;BME280;43484;43.608;1.458;2024-02-21T00:56:25;100403.22;;;8.15;100.00
49723;BME280;43484;43.608;1.458;2024-02-21T00:58:53;100399.06;;;8.17;100.00
49723;BME280;43484;43.608;1.458;2024-02-21T01:01:24;100396.09;;;8.25;100.00
49723;BME280;43484;43.608;1.458;2024-02-21T01:03:51;100396.78;;;8.23;100.00
49723;BME280;43484;43.608;1.458;2024-02-21T01:06:21;100384.13;;;8.24;100.00
49723;BME280;43484;43.608;1.458;2024-02-21T01:08:49;100372.19;;;8.23;100.00
49723;BME280;43484;43.608;1.458;2024-02-21T01:11:16;100362.50;;;8.18;100.00
49723;BME280;43484;43.608;1.458;2024-02-21T01:13:43;100351.84;;;8.25;100.00
49723;BME280;43484;43.608;1.458;2024-02-21T01:16:10;100349.97;;;8.22;100.00
49723;BME280;43484;43.608;1.458;2024-02-21T01:18:37;100347.53;;;8.24;100.00
49723;BME280;43484;43.608;1.458;2024-02-21T01:21:06;100326.50;;;8.29;100.00
49723;BME280;43484;43.608;1.458;2024-02-21T01:23:34;100329.69;;;8.24;100.00
49723;BME280;43484;43.608;1.458;2024-02-21T01:26:02;100328.69;;;8.22;100.00
49723;BME280;43484;43.608;1.458;2024-02-21T01:28:28;100316.66;;;8.19;100.00
49723;BME280;43484;43.608;1.458;2024-02-21T01:30:55;100304.66;;;8.17;100.00
49723;BME280;43484;43.608;1.458;2024-02-21T01:33:22;100312.22;;;8.15;100.00
49723;BME280;43484;43.608;1.458;2024-02-21T01:35:49;100304.66;;;8.17;100.00
49723;BME280;43484;43.608;1.458;2024-02-21T01:38:16;100300.72;;;8.23;100.00
49723;BME280;43484;43.608;1.458;2024-02-21T01:40:43;100293.75;;;8.21;100.00
49723;BME280;43484;43.608;1.458;2024-02-21T01:43:17;100300.38;;;8.17;100.00
49723;BME280;43484;43.608;1.458;2024-02-21T01:45:48;100306.09;;;8.12;100.00
49723;BME280;43484;43.608;1.458;2024-02-21T01:48:18;100293.41;;;8.13;100.00
49723;BME280;43484;43.608;1.458;2024-02-21T01:50:45;100291.38;;;8.06;100.00
49723;BME280;43484;43.608;1.458;2024-02-21T01:53:37;100278.50;;;8.03;100.00
49723;BME280;43484;43.608;1.458;2024-02-21T01:56:02;100285.13;;;8.00;100.00
49723;BME280;43484;43.608;1.458;2024-02-21T01:58:29;100277.91;;;7.91;100.00
49723;BME280;43484;43.608;1.458;2024-02-21T02:00:57;100278.94;;;7.95;100.00
49723;BME280;43484;43.608;1.458;2024-02-21T02:03:24;100267.56;;;7.88;100.00
49723;BME280;43484;43.608;1.458;2024-02-21T02:05:52;100258.09;;;7.86;100.00
49723;BME280;43484;43.608;1.458;2024-02-21T02:08:19;100262.03;;;7.79;100.00
49723;BME280;43484;43.608;1.458;2024-02-21T02:10:46;100262.53;;;7.72;100.00
49723;BME280;43484;43.608;1.458;2024-02-21T02:13:13;100258.97;;;7.68;100.00
49723;BME280;43484;43.608;1.458;2024-02-21T02:15:40;100248.19;;;7.74;100.00
49723;BME280;43484;43.608;1.458;2024-02-21T02:18:08;100248.69;;;7.67;100.00
49723;BME280;43484;43.608;1.458;2024-02-21T02:20:36;100243.91;;;7.73;100.00
49723;BME280;43484;43.608;1.458;2024-02-21T02:23:18;100232.03;;;7.74;100.00
49723;BME280;43484;43.608;1.458;2024-02-21T02:25:45;100228.53;;;7.72;100.00
49723;BME280;43484;43.608;1.458;2024-02-21T02:28:15;100227.78;;;7.74;100.00
49723;BME280;43484;43.608;1.458;2024-02-21T02:30:42;100215.94;;;7.75;100.00
49723;BME280;43484;43.608;1.458;2024-02-21T02:33:09;100221.22;;;7.79;100.00
49723;BME280;43484;43.608;1.458;2024-02-21T02:35:36;100217.47;;;7.71;100.00
49723;BME280;43484;43.608;1.458;2024-02-21T02:38:03;100210.53;;;7.68;100.00
49723;BME280;43484;43.608;1.458;2024-02-21T02:40:31;100213.81;;;7.66;100.00
49723;BME280;43484;43.608;1.458;2024-02-21T02:42:58;100220.38;;;7.61;100.00
49723;BME280;43484;43.608;1.458;2024-02-21T02:45:24;100221.09;;;7.58;100.00
49723;BME280;43484;43.608;1.458;2024-02-21T02:47:53;100215.00;;;7.55;100.00
49723;BME280;43484;43.608;1.458;2024-02-21T02:50:20;100202.25;;;7.55;100.00
49723;BME280;43484;43.608;1.458;2024-02-21T02:52:47;100193.59;;;7.51;100.00
49723;BME280;43484;43.608;1.458;2024-02-21T02:55:14;100186.09;;;7.54;100.00
49723;BME280;43484;43.608;1.458;2024-02-21T02:57:41;100190.69;;;7.61;100.00
49723;BME280;43484;43.608;1.458;2024-02-21T03:00:11;100195.06;;;7.46;100.00
49723;BME280;43484;43.608;1.458;2024-02-21T03:02:39;100193.09;;;7.41;100.00
49723;BME280;43484;43.608;1.458;2024-02-21T03:05:17;100189.16;;;7.30;100.00
49723;BME280;43484;43.608;1.458;2024-02-21T03:07:44;100179.63;;;7.26;100.00
49723;BME280;43484;43.608;1.458;2024-02-21T03:10:12;100172.63;;;7.22;100.00
49723;BME280;43484;43.608;1.458;2024-02-21T03:12:39;100170.06;;;7.22;100.00
49723;BME280;43484;43.608;1.458;2024-02-21T03:15:06;100169.84;;;7.17;100.00
49723;BME280;43484;43.608;1.458;2024-02-21T03:17:33;100166.28;;;7.14;100.00
49723;BME280;43484;43.608;1.458;2024-02-21T03:20:03;100165.34;;;7.12;100.00
49723;BME280;43484;43.608;1.458;2024-02-21T03:22:38;100158.28;;;7.06;100.00
49723;BME280;43484;43.608;1.458;2024-02-21T03:25:06;100157.91;;;6.99;100.00
49723;BME280;43484;43.608;1.458;2024-02-21T03:27:33;100165.28;;;6.93;100.00
49723;BME280;43484;43.608;1.458;2024-02-21T03:30:00;100168.44;;;6.89;100.00
49723;BME280;43484;43.608;1.458;2024-02-21T03:32:26;100164.31;;;6.91;100.00
49723;BME280;43484;43.608;1.458;2024-02-21T03:34:56;100159.19;;;6.73;100.00
49723;BME280;43484;43.608;1.458;2024-02-21T03:37:23;100166.41;;;6.82;100.00
49723;BME280;43484;43.608;1.458;2024-02-21T03:39:49;100162.59;;;6.74;100.00
49723;BME280;43484;43.608;1.458;2024-02-21T03:42:16;100163.69;;;6.79;100.00
49723;BME280;43484;43.608;1.458;2024-02-21T03:44:43;100161.03;;;6.93;100.00
49723;BME280;43484;43.608;1.458;2024-02-21T03:47:09;100171.88;;;6.89;100.00
49723;BME280;43484;43.608;1.458;2024-02-21T03:49:38;100174.34;;;6.88;100.00
49723;BME280;43484;43.608;1.458;2024-02-21T03:52:05;100162.69;;;6.75;100.00
49723;BME280;43484;43.608;1.458;2024-02-21T03:54:31;100168.72;;;6.77;100.00
49723;BME280;43484;43.608;1.458;2024-02-21T03:56:58;100171.06;;;6.73;100.00
49723;BME280;43484;43.608;1.458;2024-02-21T03:59:24;100170.72;;;6.83;100.00
49723;BME280;43484;43.608;1.458;2024-02-21T04:01:52;100175.34;;;6.74;100.00
49723;BME280;43484;43.608;1.458;2024-02-21T04:04:20;100171.63;;;6.67;100.00
49723;BME280;43484;43.608;1.458;2024-02-21T04:06:51;100170.44;;;6.61;100.00
49723;BME280;43484;43.608;1.458;2024-02-21T04:09:18;100165.28;;;6.59;100.00
49723;BME280;43484;43.608;1.458;2024-02-21T04:11:44;100152.56;;;6.59;100.00
49723;BME280;43484;43.608;1.458;2024-02-21T04:14:11;100154.69;;;6.52;100.00
49723;BME280;43484;43.608;1.458;2024-02-21T04:16:38;100150.13;;;6.45;100.00
49723;BME280;43484;43.608;1.458;2024-02-21T04:19:06;100147.31;;;6.40;100.00
49723;BME280;43484;43.608;1.458;2024-02-21T04:21:35;100146.38;;;6.38;100.00
49723;BME280;43484;43.608;1.458;2024-02-21T04:24:02;100145.25;;;6.33;100.00
49723;BME280;43484;43.608;1.458;2024-02-21T04:26:30;100141.72;;;6.29;100.00
49723;BME280;43484;43.608;1.458;2024-02-21T04:28:56;100133.91;;;6.26;100.00
49723;BME280;43484;43.608;1.458;2024-02-21T04:31:23;100133.97;;;6.28;100.00
49723;BME280;43484;43.608;1.458;2024-02-21T04:33:51;100130.81;;;6.32;100.00
49723;BME280;43484;43.608;1.458;2024-02-21T04:36:18;100116.44;;;6.32;100.00
49723;BME280;43484;43.608;1.458;2024-02-21T04:38:45;100113.47;;;6.25;100.00
49723;BME280;43484;43.608;1.458;2024-02-21T04:41:11;100113.72;;;6.29;100.00
49723;BME280;43484;43.608;1.458;2024-02-21T04:43:38;100107.69;;;6.27;100.00
49723;BME280;43484;43.608;1.458;2024-02-21T04:46:05;100108.25;;;6.22;100.00
49723;BME280;43484;43.608;1.458;2024-02-21T04:48:31;100112.16;;;6.15;100.00
49723;BME280;43484;43.608;1.458;2024-02-21T04:50:58;100103.00;;;6.19;100.00
49723;BME280;43484;43.608;1.458;2024-02-21T04:53:24;100096.41;;;6.22;100.00
49723;BME280;43484;43.608;1.458;2024-02-21T04:55:51;100102.19;;;6.20;100.00
49723;BME280;43484;43.608;1.458;2024-02-21T04:58:17;100092.69;;;6.16;100.00
49723;BME280;43484;43.608;1.458;2024-02-21T05:00:44;100105.06;;;6.10;100.00
49723;BME280;43484;43.608;1.458;2024-02-21T05:03:11;100102.53;;;6.10;100.00
49723;BME280;43484;43.608;1.458;2024-02-21T05:05:37;100100.25;;;6.14;100.00
49723;BME280;43484;43.608;1.458;2024-02-21T05:08:05;100096.97;;;6.17;100.00
49723;BME280;43484;43.608;1.458;2024-02-21T05:10:32;100104.88;;;6.23;100.00
49723;BME280;43484;43.608;1.458;2024-02-21T05:12:59;100092.44;;;6.27;100.00
49723;BME280;43484;43.608;1.458;2024-02-21T05:15:25;100079.13;;;6.33;100.00
49723;BME280;43484;43.608;1.458;2024-02-21T05:17:52;100102.75;;;6.30;100.00
49723;BME280;43484;43.608;1.458;2024-02-21T05:20:19;100094.81;;;6.24;100.00
49723;BME280;43484;43.608;1.458;2024-02-21T05:22:46;100095.22;;;6.16;100.00
49723;BME280;43484;43.608;1.458;2024-02-21T05:25:12;100086.94;;;6.20;100.00
49723;BME280;43484;43.608;1.458;2024-02-21T05:27:39;100093.63;;;6.18;100.00
49723;BME280;43484;43.608;1.458;2024-02-21T05:30:07;100091.31;;;6.06;100.00
49723;BME280;43484;43.608;1.458;2024-02-21T05:32:33;100100.66;;;6.06;100.00
49723;BME280;43484;43.608;1.458;2024-02-21T05:35:00;100099.84;;;6.07;100.00
49723;BME280;43484;43.608;1.458;2024-02-21T05:37:27;100105.72;;;6.06;100.00
49723;BME280;43484;43.608;1.458;2024-02-21T05:39:53;100103.25;;;6.07;100.00
49723;BME280;43484;43.608;1.458;2024-02-21T05:42:20;100096.34;;;6.05;100.00
49723;BME280;43484;43.608;1.458;2024-02-21T05:44:46;100091.19;;;6.03;100.00
49723;BME280;43484;43.608;1.458;2024-02-21T05:47:13;100088.72;;;6.05;100.00
49723;BME280;43484;43.608;1.458;2024-02-21T05:49:41;100082.09;;;6.08;100.00
49723;BME280;43484;43.608;1.458;2024-02-21T05:52:08;100082.91;;;6.07;100.00
49723;BME280;43484;43.608;1.458;2024-02-21T05:54:37;100073.84;;;5.96;100.00
49723;BME280;43484;43.608;1.458;2024-02-21T05:57:06;100073.16;;;5.99;100.00
49723;BME280;43484;43.608;1.458;2024-02-21T05:59:34;100063.53;;;5.93;100.00
49723;BME280;43484;43.608;1.458;2024-02-21T06:02:03;100061.22;;;5.98;100.00
49723;BME280;43484;43.608;1.458;2024-02-21T06:04:30;100074.25;;;6.04;100.00
49723;BME280;43484;43.608;1.458;2024-02-21T06:06:57;100071.66;;;6.02;100.00
49723;BME280;43484;43.608;1.458;2024-02-21T06:09:24;100069.09;;;6.02;100.00
49723;BME280;43484;43.608;1.458;2024-02-21T06:11:50;100066.41;;;5.99;100.00
49723;BME280;43484;43.608;1.458;2024-02-21T06:14:17;100060.44;;;5.99;100.00
49723;BME280;43484;43.608;1.458;2024-02-21T06:16:44;100063.75;;;5.98;100.00
49723;BME280;43484;43.608;1.458;2024-02-21T06:19:11;100058.44;;;5.93;100.00
49723;BME280;43484;43.608;1.458;2024-02-21T06:21:37;100054.09;;;5.91;100.00
49723;BME280;43484;43.608;1.458;2024-02-21T06:24:05;100052.25;;;5.88;100.00
49723;BME280;43484;43.608;1.458;2024-02-21T06:26:31;100054.19;;;5.92;100.00
49723;BME280;43484;43.608;1.458;2024-02-21T06:28:58;100054.09;;;5.91;100.00
49723;BME280;43484;43.608;1.458;2024-02-21T06:31:27;100043.41;;;5.98;100.00
49723;BME280;43484;43.608;1.458;2024-02-21T06:33:54;100038.19;;;6.11;100.00
49723;BME280;43484;43.608;1.458;2024-02-21T06:36:21;100039.50;;;6.20;100.00
49723;BME280;43484;43.608;1.458;2024-02-21T06:38:48;100036.81;;;6.17;100.00
49723;BME280;43484;43.608;1.458;2024-02-21T06:41:18;100039.97;;;6.13;100.00
49723;BME280;43484;43.608;1.458;2024-02-21T06:43:46;100048.91;;;6.05;100.00
49723;BME280;43484;43.608;1.458;2024-02-21T06:46:27;100065.41;;;6.13;100.00
49723;BME280;43484;43.608;1.458;2024-02-21T06:48:56;100074.41;;;6.07;100.00
49723;BME280;43484;43.608;1.458;2024-02-21T06:51:23;100083.41;;;6.00;100.00
49723;BME280;43484;43.608;1.458;2024-02-21T06:53:51;100076.91;;;5.89;100.00
49723;BME280;43484;43.608;1.458;2024-02-21T06:56:18;100080.44;;;5.93;100.00
49723;BME280;43484;43.608;1.458;2024-02-21T06:58:45;100078.63;;;5.90;100.00
49723;BME280;43484;43.608;1.458;2024-02-21T07:01:12;100080.56;;;5.94;100.00
49723;BME280;43484;43.608;1.458;2024-02-21T07:03:39;100080.56;;;5.94;100.00
49723;BME280;43484;43.608;1.458;2024-02-21T07:06:05;100075.38;;;5.93;100.00
49723;BME280;43484;43.608;1.458;2024-02-21T07:08:32;100069.56;;;5.95;100.00
49723;BME280;43484;43.608;1.458;2024-02-21T07:10:59;100065.13;;;5.91;100.00
49723;BME280;43484;43.608;1.458;2024-02-21T07:13:26;100071.25;;;5.95;100.00
49723;BME280;43484;43.608;1.458;2024-02-21T07:15:52;100065.31;;;5.94;100.00
49723;BME280;43484;43.608;1.458;2024-02-21T07:18:19;100062.09;;;5.98;100.00
49723;BME280;43484;43.608;1.458;2024-02-21T07:20:46;100056.53;;;6.05;100.00
49723;BME280;43484;43.608;1.458;2024-02-21T07:23:13;100066.22;;;6.12;100.00
49723;BME280;43484;43.608;1.458;2024-02-21T07:25:40;100063.34;;;6.06;100.00
49723;BME280;43484;43.608;1.458;2024-02-21T07:28:06;100061.84;;;6.10;100.00
49723;BME280;43484;43.608;1.458;2024-02-21T07:30:33;100058.00;;;6.18;100.00
49723;BME280;43484;43.608;1.458;2024-02-21T07:33:00;100070.31;;;6.26;100.00
49723;BME280;43484;43.608;1.458;2024-02-21T07:35:26;100068.56;;;6.25;100.00
49723;BME280;43484;43.608;1.458;2024-02-21T07:37:53;100063.84;;;6.33;100.00
49723;BME280;43484;43.608;1.458;2024-02-21T07:40:20;100060.81;;;6.40;100.00
49723;BME280;43484;43.608;1.458;2024-02-21T07:42:46;100073.13;;;6.49;100.00
49723;BME280;43484;43.608;1.458;2024-02-21T07:45:17;100065.13;;;6.59;100.00
49723;BME280;43484;43.608;1.458;2024-02-21T07:47:45;100066.38;;;6.67;100.00
49723;BME280;43484;43.608;1.458;2024-02-21T07:50:12;100072.34;;;6.67;100.00
49723;BME280;43484;43.608;1.458;2024-02-21T07:52:39;100078.81;;;6.61;100.00
49723;BME280;43484;43.608;1.458;2024-02-21T07:55:05;100074.06;;;6.68;100.00
49723;BME280;43484;43.608;1.458;2024-02-21T07:57:32;100073.50;;;6.56;100.00
49723;BME280;43484;43.608;1.458;2024-02-21T07:59:59;100079.28;;;6.70;100.00
49723;BME280;43484;43.608;1.458;2024-02-21T08:02:25;100079.56;;;6.76;100.00
49723;BME280;43484;43.608;1.458;2024-02-21T08:04:52;100086.22;;;6.74;100.00
49723;BME280;43484;43.608;1.458;2024-02-21T08:07:19;100067.91;;;6.81;100.00
49723;BME280;43484;43.608;1.458;2024-02-21T08:09:46;100073.06;;;6.82;100.00
49723;BME280;43484;43.608;1.458;2024-02-21T08:12:12;100070.97;;;6.91;100.00
49723;BME280;43484;43.608;1.458;2024-02-21T08:14:39;100062.53;;;6.92;100.00
49723;BME280;43484;43.608;1.458;2024-02-21T08:17:05;100065.38;;;6.81;100.00
49723;BME280;43484;43.608;1.458;2024-02-21T08:19:32;100069.53;;;6.96;100.00
49723;BME280;43484;43.608;1.458;2024-02-21T08:21:59;100070.38;;;6.97;100.00
49723;BME280;43484;43.608;1.458;2024-02-21T08:24:26;100075.63;;;7.00;100.00
49723;BME280;43484;43.608;1.458;2024-02-21T08:26:53;100079.97;;;7.02;100.00
49723;BME280;43484;43.608;1.458;2024-02-21T08:29:19;100084.13;;;7.00;100.00
49723;BME280;43484;43.608;1.458;2024-02-21T08:31:46;100093.22;;;6.95;100.00
49723;BME280;43484;43.608;1.458;2024-02-21T08:34:14;100096.94;;;7.02;100.00
49723;BME280;43484;43.608;1.458;2024-02-21T08:36:40;100106.09;;;6.98;100.00
49723;BME280;43484;43.608;1.458;2024-02-21T08:39:07;100105.38;;;7.01;100.00
49723;BME280;43484;43.608;1.458;2024-02-21T08:41:36;100107.66;;;6.95;100.00
49723;BME280;43484;43.608;1.458;2024-02-21T08:44:24;100112.44;;;7.06;100.00
49723;BME280;43484;43.608;1.458;2024-02-21T08:46:54;100113.84;;;7.00;100.00
49723;BME280;43484;43.608;1.458;2024-02-21T08:49:22;100109.84;;;7.05;100.00
49723;BME280;43484;43.608;1.458;2024-02-21T08:51:49;100098.59;;;7.19;100.00
49723;BME280;43484;43.608;1.458;2024-02-21T08:54:16;100104.00;;;7.25;100.00
49723;BME280;43484;43.608;1.458;2024-02-21T08:56:44;100109.38;;;7.31;100.00
49723;BME280;43484;43.608;1.458;2024-02-21T08:59:10;100118.34;;;7.23;100.00
49723;BME280;43484;43.608;1.458;2024-02-21T09:01:37;100102.38;;;7.27;100.00
49723;BME280;43484;43.608;1.458;2024-02-21T09:04:04;100114.47;;;7.31;100.00
49723;BME280;43484;43.608;1.458;2024-02-21T09:06:31;100122.91;;;7.30;100.00
49723;BME280;43484;43.608;1.458;2024-02-21T09:09:00;100118.91;;;7.35;100.00
49723;BME280;43484;43.608;1.458;2024-02-21T09:11:27;100112.75;;;7.49;100.00
49723;BME280;43484;43.608;1.458;2024-02-21T09:13:54;100120.31;;;7.47;100.00
49723;BME280;43484;43.608;1.458;2024-02-21T09:16:21;100105.22;;;7.52;100.00
49723;BME280;43484;43.608;1.458;2024-02-21T09:18:50;100098.28;;;7.67;100.00
49723;BME280;43484;43.608;1.458;2024-02-21T09:21:16;100102.97;;;7.77;100.00
49723;BME280;43484;43.608;1.458;2024-02-21T09:23:44;100104.00;;;8.00;100.00
49723;BME280;43484;43.608;1.458;2024-02-21T09:26:11;100098.69;;;8.14;100.00
49723;BME280;43484;43.608;1.458;2024-02-21T09:28:40;100105.84;;;8.23;100.00
49723;BME280;43484;43.608;1.458;2024-02-21T09:31:07;100130.22;;;8.34;100.00
49723;BME280;43484;43.608;1.458;2024-02-21T09:33:33;100128.09;;;8.44;100.00
49723;BME280;43484;43.608;1.458;2024-02-21T09:36:01;100130.09;;;8.51;100.00
49723;BME280;43484;43.608;1.458;2024-02-21T09:38:27;100125.38;;;8.60;100.00
49723;BME280;43484;43.608;1.458;2024-02-21T09:41:16;100130.56;;;8.62;100.00
49723;BME280;43484;43.608;1.458;2024-02-21T09:43:49;100136.91;;;8.71;100.00
49723;BME280;43484;43.608;1.458;2024-02-21T09:46:18;100145.03;;;8.82;100.00
49723;BME280;43484;43.608;1.458;2024-02-21T09:48:58;100153.19;;;8.94;100.00
49723;BME280;43484;43.608;1.458;2024-02-21T09:51:30;100173.94;;;9.22;100.00
49723;BME280;43484;43.608;1.458;2024-02-21T09:53:59;100195.72;;;9.35;100.00
49723;BME280;43484;43.608;1.458;2024-02-21T09:56:40;100219.22;;;9.47;100.00
49723;BME280;43484;43.608;1.458;2024-02-21T09:59:07;100260.25;;;9.70;100.00
49723;BME280;43484;43.608;1.458;2024-02-21T10:01:34;100301.25;;;9.94;100.00
49723;BME280;43484;43.608;1.458;2024-02-21T10:04:01;100337.84;;;10.12;100.00
49723;BME280;43484;43.608;1.458;2024-02-21T10:06:29;100376.47;;;10.18;100.00
49723;BME280;43484;43.608;1.458;2024-02-21T10:08:56;100394.75;;;10.27;100.00
49723;BME280;43484;43.608;1.458;2024-02-21T10:11:24;100414.44;;;10.50;100.00
49723;BME280;43484;43.608;1.458;2024-02-21T10:14:02;100433.50;;;10.57;100.00
49723;BME280;43484;43.608;1.458;2024-02-21T10:16:30;100449.34;;;10.69;100.00
49723;BME280;43484;43.608;1.458;2024-02-21T10:18:57;100467.28;;;10.69;100.00
49723;BME280;43484;43.608;1.458;2024-02-21T10:21:24;100470.09;;;10.75;100.00
49723;BME280;43484;43.608;1.458;2024-02-21T10:23:51;100483.44;;;10.88;100.00
49723;BME280;43484;43.608;1.458;2024-02-21T10:26:19;100498.78;;;11.10;100.00
49723;BME280;43484;43.608;1.458;2024-02-21T10:28:47;100499.25;;;11.22;100.00
49723;BME280;43484;43.608;1.458;2024-02-21T10:31:22;100510.44;;;11.47;100.00
49723;BME280;43484;43.608;1.458;2024-02-21T10:34:00;100511.22;;;11.68;100.00
49723;BME280;43484;43.608;1.458;2024-02-21T10:36:32;100518.56;;;11.82;100.00
49723;BME280;43484;43.608;1.458;2024-02-21T10:38:58;100515.31;;;11.86;100.00
49723;BME280;43484;43.608;1.458;2024-02-21T10:41:25;100515.88;;;12.03;100.00
49723;BME280;43484;43.608;1.458;2024-02-21T10:43:54;100521.06;;;12.04;100.00
49723;BME280;43484;43.608;1.458;2024-02-21T10:46:23;100517.75;;;12.07;100.00
49723;BME280;43484;43.608;1.458;2024-02-21T10:49:20;100510.28;;;12.14;100.00
49723;BME280;43484;43.608;1.458;2024-02-21T10:51:49;100518.41;;;12.26;100.00
49723;BME280;43484;43.608;1.458;2024-02-21T10:57:13;100508.09;;;12.25;100.00
49723;BME280;43484;43.608;1.458;2024-02-21T10:59:40;100516.31;;;12.40;100.00
49723;BME280;43484;43.608;1.458;2024-02-21T11:02:07;100519.22;;;12.50;100.00
49723;BME280;43484;43.608;1.458;2024-02-21T11:04:35;100512.69;;;12.60;100.00
49723;BME280;43484;43.608;1.458;2024-02-21T11:07:05;100505.09;;;12.64;100.00
49723;BME280;43484;43.608;1.458;2024-02-21T11:09:36;100511.69;;;12.83;100.00
49723;BME280;43484;43.608;1.458;2024-02-21T11:12:04;100505.84;;;12.87;100.00
49723;BME280;43484;43.608;1.458;2024-02-21T11:14:32;100509.38;;;12.91;100.00
49723;BME280;43484;43.608;1.458;2024-02-21T11:17:01;100502.75;;;12.99;100.00
49723;BME280;43484;43.608;1.458;2024-02-21T11:19:29;100504.03;;;13.11;100.00
49723;BME280;43484;43.608;1.458;2024-02-21T11:21:57;100505.75;;;13.11;100.00
49723;BME280;43484;43.608;1.458;2024-02-21T11:24:33;100502.28;;;13.10;100.00
49723;BME280;43484;43.608;1.458;2024-02-21T11:27:13;100496.53;;;13.19;100.00
49723;BME280;43484;43.608;1.458;2024-02-21T11:29:43;100499.59;;;13.35;100.00
49723;BME280;43484;43.608;1.458;2024-02-21T11:32:11;100499.06;;;13.47;100.00
49723;BME280;43484;43.608;1.458;2024-02-21T11:34:38;100507.84;;;13.53;100.00
49723;BME280;43484;43.608;1.458;2024-02-21T11:37:14;100500.88;;;13.49;100.00
49723;BME280;43484;43.608;1.458;2024-02-21T11:39:44;100508.31;;;13.40;100.00
49723;BME280;43484;43.608;1.458;2024-02-21T11:42:10;100496.69;;;13.53;100.00
49723;BME280;43484;43.608;1.458;2024-02-21T11:44:38;100489.41;;;13.68;100.00
49723;BME280;43484;43.608;1.458;2024-02-21T11:47:06;100493.06;;;13.77;100.00
49723;BME280;43484;43.608;1.458;2024-02-21T11:49:38;100487.16;;;13.81;100.00
49723;BME280;43484;43.608;1.458;2024-02-21T11:52:06;100480.31;;;13.82;100.00
49723;BME280;43484;43.608;1.458;2024-02-21T11:54:34;100478.78;;;13.88;100.00
49723;BME280;43484;43.608;1.458;2024-02-21T11:57:01;100479.78;;;13.95;100.00
49723;BME280;43484;43.608;1.458;2024-02-21T11:59:30;100472.94;;;13.96;100.00
49723;BME280;43484;43.608;1.458;2024-02-21T12:02:00;100471.38;;;14.01;100.00
49723;BME280;43484;43.608;1.458;2024-02-21T12:04:27;100461.09;;;14.02;100.00
49723;BME280;43484;43.608;1.458;2024-02-21T12:06:56;100462.94;;;14.06;100.00
49723;BME280;43484;43.608;1.458;2024-02-21T12:09:24;100465.50;;;14.06;100.00
49723;BME280;43484;43.608;1.458;2024-02-21T12:12:19;100458.69;;;14.08;100.00
49723;BME280;43484;43.608;1.458;2024-02-21T12:14:46;100451.13;;;14.16;100.00
49723;BME280;43484;43.608;1.458;2024-02-21T12:17:12;100446.06;;;14.19;100.00
49723;BME280;43484;43.608;1.458;2024-02-21T12:19:39;100441.88;;;14.24;100.00
49723;BME280;43484;43.608;1.458;2024-02-21T12:22:06;100437.41;;;14.17;100.00
49723;BME280;43484;43.608;1.458;2024-02-21T12:24:35;100435.00;;;14.23;100.00
49723;BME280;43484;43.608;1.458;2024-02-21T12:27:02;100430.94;;;14.31;100.00
49723;BME280;43484;43.608;1.458;2024-02-21T12:29:30;100424.22;;;14.37;100.00
49723;BME280;43484;43.608;1.458;2024-02-21T12:31:57;100422.59;;;14.41;100.00
49723;BME280;43484;43.608;1.458;2024-02-21T12:34:24;100421.91;;;14.48;100.00
49723;BME280;43484;43.608;1.458;2024-02-21T12:36:54;100412.53;;;14.51;100.00
49723;BME280;43484;43.608;1.458;2024-02-21T12:39:20;100411.69;;;14.52;100.00
49723;BME280;43484;43.608;1.458;2024-02-21T12:41:47;100410.72;;;14.49;100.00
49723;BME280;43484;43.608;1.458;2024-02-21T12:44:13;100406.63;;;14.57;100.00
49723;BME280;43484;43.608;1.458;2024-02-21T12:46:40;100394.75;;;14.63;100.00
49723;BME280;43484;43.608;1.458;2024-02-21T12:49:08;100382.88;;;14.70;100.00
49723;BME280;43484;43.608;1.458;2024-02-21T12:51:35;100389.59;;;14.63;100.00
49723;BME280;43484;43.608;1.458;2024-02-21T12:54:02;100396.53;;;14.67;100.00